createdAt,value
2023-03-02T00:00:16.812Z,68.21
2023-03-02T00:03:19.678Z,68.14
2023-03-02T00:06:22.493Z,68.05
2023-03-02T00:09:25.398Z,68.61
2023-03-02T00:12:32.322Z,68.60
2023-03-02T00:15:35.059Z,68.57
2023-03-02T00:18:37.849Z,68.47
2023-03-02T00:21:40.610Z,69.19
2023-03-02T00:24:43.324Z,69.32
2023-03-02T00:27:47.454Z,69.73
2023-03-02T00:30:50.211Z,70.12
2023-03-02T00:33:54.326Z,69.51
2023-03-02T00:36:57.087Z,69.45
2023-03-02T00:39:59.743Z,69.50
2023-03-02T00:43:04.135Z,69.74
2023-03-02T00:46:11.897Z,69.97
2023-03-02T00:49:14.662Z,70.18
2023-03-02T00:52:17.987Z,69.49
2023-03-02T00:55:20.816Z,69.52
2023-03-02T00:58:25.049Z,68.93
2023-03-02T01:01:28.099Z,69.54
2023-03-02T01:04:33.964Z,69.98
2023-03-02T01:07:36.655Z,69.81
2023-03-02T01:10:40.117Z,69.66
2023-03-02T01:13:44.395Z,68.95
2023-03-02T01:16:47.707Z,68.54
2023-03-02T01:19:50.434Z,68.60
2023-03-02T01:22:53.177Z,68.68
2023-03-02T01:25:55.896Z,69.07
2023-03-02T01:29:00.090Z,69.40
2023-03-02T01:32:02.909Z,69.22
2023-03-02T01:35:06.727Z,69.16
2023-03-02T01:38:09.510Z,69.25
2023-03-02T01:41:12.794Z,69.27
2023-03-02T01:44:37.111Z,69.92
2023-03-02T01:47:40.720Z,69.38
2023-03-02T01:50:43.450Z,71.04
2023-03-02T01:53:48.815Z,70.61
2023-03-02T01:56:54.016Z,70.30
2023-03-02T02:00:06.549Z,70.26
2023-03-02T02:03:13.705Z,70.61
2023-03-02T02:06:22.702Z,70.87
2023-03-02T02:09:27.820Z,70.82
2023-03-02T02:12:30.736Z,70.40
2023-03-02T02:15:35.111Z,70.62
2023-03-02T02:18:41.460Z,70.96
2023-03-02T02:21:44.250Z,71.02
2023-03-02T02:24:54.248Z,69.93
2023-03-02T02:27:58.683Z,69.64
2023-03-02T02:31:07.530Z,69.35
2023-03-02T02:34:15.144Z,70.00
2023-03-02T02:37:23.074Z,70.30
2023-03-02T02:40:44.395Z,71.08
2023-03-02T02:43:48.870Z,69.74
2023-03-02T02:46:51.578Z,70.59
2023-03-02T02:49:57.054Z,70.29
2023-03-02T02:53:04.290Z,70.38
2023-03-02T02:56:09.601Z,70.49
2023-03-02T02:59:19.437Z,70.75
2023-03-02T03:02:24.597Z,70.59
2023-03-02T03:05:27.382Z,70.24
2023-03-02T03:09:00.959Z,69.91
2023-03-02T03:12:07.958Z,70.42
2023-03-02T03:15:12.735Z,70.73
2023-03-02T03:18:23.827Z,70.76
2023-03-02T03:21:26.632Z,70.80
2023-03-02T03:24:32.283Z,69.71
2023-03-02T03:27:35.053Z,69.77
2023-03-02T03:30:39.228Z,69.90
2023-03-02T03:33:41.934Z,70.33
2023-03-02T03:36:45.209Z,69.91
2023-03-02T03:39:48.001Z,70.18
2023-03-02T03:42:50.622Z,69.81
2023-03-02T03:45:54.768Z,69.91
2023-03-02T03:48:58.163Z,69.62
2023-03-02T03:52:01.023Z,69.20
2023-03-02T03:55:04.133Z,69.32
2023-03-02T03:58:07.006Z,69.69
2023-03-02T04:01:11.128Z,71.11
2023-03-02T04:04:17.410Z,70.96
2023-03-02T04:07:20.217Z,69.87
2023-03-02T04:10:22.996Z,70.06
2023-03-02T04:13:26.179Z,69.66
2023-03-02T04:16:31.374Z,70.81
2023-03-02T04:19:35.576Z,69.71
2023-03-02T04:22:38.391Z,69.92
2023-03-02T04:25:41.264Z,69.66
2023-03-02T04:28:44.240Z,70.15
2023-03-02T04:31:48.859Z,69.79
2023-03-02T04:34:51.575Z,70.21
2023-03-02T04:37:54.380Z,70.99
2023-03-02T04:40:58.254Z,69.02
2023-03-02T04:44:01.200Z,70.34
2023-03-02T04:47:05.231Z,70.67
2023-03-02T04:50:10.571Z,70.46
2023-03-02T04:53:13.479Z,69.71
2023-03-02T04:56:16.234Z,70.56
2023-03-02T04:59:22.496Z,71.09
2023-03-02T05:02:26.733Z,70.85
2023-03-02T05:05:30.734Z,71.13
2023-03-02T05:08:33.457Z,71.78
2023-03-02T05:11:37.024Z,70.69
2023-03-02T05:14:39.921Z,70.22
2023-03-02T05:17:44.081Z,69.96
2023-03-02T05:20:46.939Z,70.15
2023-03-02T05:23:51.053Z,71.85
2023-03-02T05:26:53.752Z,71.89
2023-03-02T05:29:56.553Z,72.57
2023-03-02T05:33:00.744Z,73.16
2023-03-02T05:36:03.553Z,73.93
2023-03-02T05:39:08.393Z,74.56
2023-03-02T05:42:11.504Z,74.11
2023-03-02T05:45:21.478Z,75.04
2023-03-02T05:48:25.590Z,75.08
2023-03-02T05:51:28.882Z,75.04
2023-03-02T05:54:32.241Z,75.09
2023-03-02T05:57:35.068Z,74.21
2023-03-02T06:00:37.693Z,75.23
2023-03-02T06:03:41.811Z,75.12
2023-03-02T06:06:44.600Z,75.42
2023-03-02T06:09:47.390Z,75.26
2023-03-02T06:12:50.200Z,74.65
2023-03-02T06:15:52.871Z,74.80
2023-03-02T06:18:56.912Z,74.39
2023-03-02T06:21:59.603Z,74.39
2023-03-02T06:25:02.418Z,74.61
2023-03-02T06:28:05.481Z,74.83
2023-03-02T06:31:08.183Z,74.59
2023-03-02T06:34:12.256Z,75.08
2023-03-02T06:37:14.992Z,75.29
2023-03-02T06:40:18.122Z,75.77
2023-03-02T06:43:20.738Z,75.58
2023-03-02T06:46:23.524Z,75.87
2023-03-02T06:49:27.750Z,76.19
2023-03-02T06:52:30.507Z,75.66
2023-03-02T06:55:33.230Z,75.53
2023-03-02T06:58:36.084Z,75.88
2023-03-02T07:01:39.333Z,75.74
2023-03-02T07:04:43.441Z,75.29
2023-03-02T07:07:46.581Z,74.71
2023-03-02T07:10:49.390Z,74.38
2023-03-02T07:13:52.057Z,74.08
2023-03-02T07:16:57.374Z,73.55
2023-03-02T07:20:01.520Z,73.62
2023-03-02T07:23:04.310Z,73.09
2023-03-02T07:26:08.786Z,73.83
2023-03-02T07:29:11.521Z,73.04
2023-03-02T07:32:14.209Z,73.52
2023-03-02T07:35:18.599Z,72.87
2023-03-02T07:38:21.267Z,72.29
2023-03-02T07:41:24.021Z,71.98
2023-03-02T07:44:27.335Z,71.14
2023-03-02T07:47:30.176Z,71.81
2023-03-02T07:50:34.570Z,71.68
2023-03-02T07:53:38.471Z,71.28
2023-03-02T07:56:41.147Z,71.46
2023-03-02T07:59:44.250Z,71.67
2023-03-02T08:02:47.318Z,71.61
2023-03-02T08:05:51.588Z,71.17
2023-03-02T08:08:54.435Z,71.12
2023-03-02T08:11:57.256Z,70.54
2023-03-02T08:14:59.988Z,69.97
2023-03-02T08:18:03.029Z,71.38
2023-03-02T08:21:12.912Z,70.43
2023-03-02T08:24:15.611Z,71.19
2023-03-02T08:27:18.411Z,69.78
2023-03-02T08:30:21.465Z,70.23
2023-03-02T08:33:24.417Z,69.95
2023-03-02T08:36:28.532Z,69.09
2023-03-02T08:39:32.139Z,68.93
2023-03-02T08:42:34.949Z,69.58
2023-03-02T08:45:38.063Z,67.50
2023-03-02T08:48:41.385Z,66.93
2023-03-02T08:51:46.340Z,67.14
2023-03-02T08:54:49.037Z,67.15
2023-03-02T08:57:51.817Z,68.41
2023-03-02T09:00:54.886Z,65.62
2023-03-02T09:03:59.647Z,64.40
2023-03-02T09:07:03.885Z,65.33
2023-03-02T09:10:06.834Z,65.19
2023-03-02T09:13:09.575Z,65.35
2023-03-02T09:16:13.075Z,65.48
2023-03-02T09:19:15.848Z,64.79
2023-03-02T09:22:19.882Z,63.67
2023-03-02T09:25:22.586Z,65.17
2023-03-02T09:28:25.717Z,63.89
2023-03-02T09:31:30.207Z,63.26
2023-03-02T09:34:33.235Z,62.11
2023-03-02T09:37:38.894Z,62.44
2023-03-02T09:40:53.087Z,60.97
2023-03-02T09:44:05.195Z,60.59
2023-03-02T09:47:29.947Z,58.33
2023-03-02T09:50:41.256Z,58.19
2023-03-02T09:53:52.991Z,58.00
2023-03-02T09:56:57.887Z,57.89
2023-03-02T10:00:18.316Z,55.91
2023-03-02T10:03:23.523Z,55.45
2023-03-02T10:06:26.938Z,55.69
2023-03-02T10:09:31.024Z,56.13
2023-03-02T10:12:49.379Z,54.63
2023-03-02T10:16:11.796Z,55.07
2023-03-02T10:19:21.245Z,55.32
2023-03-02T10:22:30.852Z,54.82
2023-03-02T10:25:40.592Z,53.63
2023-03-02T10:28:49.312Z,52.73
2023-03-02T10:31:58.549Z,52.87
2023-03-02T10:35:06.858Z,52.45
2023-03-02T10:38:13.946Z,51.64
2023-03-02T10:41:24.520Z,52.34
2023-03-02T10:44:30.774Z,52.23
2023-03-02T10:47:33.463Z,51.58
2023-03-02T10:50:36.352Z,49.62
2023-03-02T10:53:39.000Z,48.82
2023-03-02T10:56:50.313Z,48.80
2023-03-02T10:59:53.890Z,49.49
2023-03-02T11:02:58.424Z,47.69
2023-03-02T11:06:18.321Z,48.49
2023-03-02T11:09:20.923Z,46.84
2023-03-02T11:12:25.014Z,47.40
2023-03-02T11:15:35.652Z,47.72
2023-03-02T11:18:40.932Z,46.11
2023-03-02T11:21:49.614Z,47.07
2023-03-02T11:24:57.054Z,44.72
2023-03-02T11:28:06.439Z,45.36
2023-03-02T11:31:17.549Z,44.35
2023-03-02T11:34:35.218Z,46.00
2023-03-02T11:37:43.561Z,45.20
2023-03-02T11:40:49.790Z,45.12
2023-03-02T11:43:55.446Z,44.62
2023-03-02T11:47:01.919Z,44.20
2023-03-02T11:50:06.521Z,45.47
2023-03-02T11:53:14.854Z,45.03
2023-03-02T11:56:17.733Z,43.15
2023-03-02T11:59:27.509Z,43.67
2023-03-02T12:02:31.471Z,43.36
2023-03-02T12:05:37.037Z,43.35
2023-03-02T12:08:41.215Z,42.85
2023-03-02T12:11:46.896Z,43.46
2023-03-02T12:14:52.305Z,43.65
2023-03-02T12:17:54.995Z,42.32
2023-03-02T12:21:06.343Z,42.93
2023-03-02T12:24:24.685Z,42.93
2023-03-02T12:27:28.541Z,44.85
2023-03-02T12:30:32.561Z,43.16
2023-03-02T12:33:44.355Z,44.27
2023-03-02T12:36:47.727Z,43.27
2023-03-02T12:40:35.015Z,42.91
2023-03-02T12:43:38.595Z,43.27
2023-03-02T12:46:46.864Z,41.95
2023-03-02T12:49:55.495Z,42.93
2023-03-02T12:52:59.971Z,42.63
2023-03-02T12:56:02.770Z,41.84
2023-03-02T12:59:05.551Z,42.28
2023-03-02T13:02:18.270Z,43.35
2023-03-02T13:05:22.815Z,42.80
2023-03-02T13:08:28.964Z,42.11
2023-03-02T13:11:34.083Z,43.95
2023-03-02T13:14:36.735Z,42.88
2023-03-02T13:17:40.764Z,41.47
2023-03-02T13:20:43.790Z,42.51
2023-03-02T13:23:48.993Z,43.47
2023-03-02T13:26:57.487Z,43.78
2023-03-02T13:30:10.949Z,42.30
2023-03-02T13:33:23.806Z,42.79
2023-03-02T13:36:28.794Z,42.99
2023-03-02T13:39:32.564Z,42.63
2023-03-02T13:42:41.161Z,42.28
2023-03-02T13:45:53.362Z,41.80
2023-03-02T13:49:09.799Z,43.40
2023-03-02T13:52:22.207Z,42.40
2023-03-02T13:55:25.304Z,43.12
2023-03-02T13:58:29.629Z,42.25
2023-03-02T14:01:32.458Z,42.67
2023-03-02T14:04:36.519Z,42.15
2023-03-02T14:07:39.262Z,43.16
2023-03-02T14:10:42.429Z,43.27
2023-03-02T14:13:48.548Z,42.90
2023-03-02T14:16:51.959Z,42.98
2023-03-02T14:19:56.144Z,43.35
2023-03-02T14:23:02.945Z,44.20
2023-03-02T14:26:20.624Z,43.72
2023-03-02T14:29:26.611Z,42.90
2023-03-02T14:32:29.312Z,43.64
2023-03-02T14:35:33.405Z,43.75
2023-03-02T14:38:36.480Z,44.35
2023-03-02T14:41:52.852Z,44.46
2023-03-02T14:44:56.633Z,44.57
2023-03-02T14:47:59.270Z,44.80
2023-03-02T14:51:04.007Z,44.47
2023-03-02T14:54:09.371Z,43.61
2023-03-02T14:57:18.078Z,44.55
2023-03-02T15:00:21.603Z,44.66
2023-03-02T15:03:25.619Z,44.55
2023-03-02T15:06:32.197Z,45.40
2023-03-02T15:09:35.061Z,46.15
2023-03-02T15:12:37.822Z,46.30
2023-03-02T15:15:41.423Z,45.86
2023-03-02T15:18:44.285Z,46.79
2023-03-02T15:21:48.283Z,46.47
2023-03-02T15:24:50.920Z,46.36
2023-03-02T15:27:55.632Z,47.92
2023-03-02T15:30:58.321Z,48.34
2023-03-02T15:34:00.958Z,49.26
2023-03-02T15:37:04.968Z,48.85
2023-03-02T15:40:09.617Z,48.57
2023-03-02T15:43:12.327Z,49.55
2023-03-02T15:46:15.442Z,49.06
2023-03-02T15:49:22.567Z,49.04
2023-03-02T15:52:27.149Z,50.13
2023-03-02T15:55:29.830Z,50.41
2023-03-02T15:58:32.514Z,50.92
2023-03-02T16:01:35.194Z,50.47
2023-03-02T16:04:37.981Z,50.37
2023-03-02T16:07:42.032Z,50.95
2023-03-02T16:10:44.712Z,51.46
2023-03-02T16:13:47.368Z,50.55
2023-03-02T16:16:50.100Z,51.31
2023-03-02T16:19:52.770Z,51.37
2023-03-02T16:22:57.714Z,51.64
2023-03-02T16:26:08.308Z,51.74
2023-03-02T16:29:12.618Z,51.52
2023-03-02T16:32:15.689Z,52.97
2023-03-02T16:35:18.545Z,53.28
2023-03-02T16:38:22.547Z,54.04
2023-03-02T16:41:25.713Z,53.79
2023-03-02T16:44:29.124Z,53.59
2023-03-02T16:47:31.780Z,54.24
2023-03-02T16:50:34.493Z,54.87
2023-03-02T16:53:40.629Z,55.17
2023-03-02T16:56:45.199Z,55.66
2023-03-02T16:59:47.941Z,55.88
2023-03-02T17:02:50.968Z,55.95
2023-03-02T17:05:53.618Z,56.59
2023-03-02T17:08:57.720Z,56.95
2023-03-02T17:12:00.411Z,57.49
2023-03-02T17:15:03.128Z,57.44
2023-03-02T17:18:05.750Z,57.97
2023-03-02T17:21:09.261Z,58.19
2023-03-02T17:24:13.670Z,58.84
2023-03-02T17:27:24.968Z,59.33
2023-03-02T17:30:28.421Z,59.53
2023-03-02T17:33:32.149Z,60.22
2023-03-02T17:36:36.795Z,60.02
2023-03-02T17:39:40.878Z,60.01
2023-03-02T17:42:43.825Z,60.38
2023-03-02T17:45:46.789Z,60.71
2023-03-02T17:48:54.047Z,61.44
2023-03-02T17:51:57.525Z,60.72
2023-03-02T17:55:01.557Z,60.33
2023-03-02T17:58:04.194Z,60.44
2023-03-02T18:01:07.429Z,60.08
2023-03-02T18:04:10.061Z,60.25
2023-03-02T18:07:12.921Z,60.23
2023-03-02T18:10:17.118Z,60.11
2023-03-02T18:13:19.924Z,60.28
2023-03-02T18:16:22.774Z,60.41
2023-03-02T18:19:25.517Z,60.71
2023-03-02T18:22:28.196Z,60.74
2023-03-02T18:25:32.149Z,61.08
2023-03-02T18:28:34.901Z,60.90
2023-03-02T18:31:37.708Z,61.29
2023-03-02T18:34:40.614Z,61.25
2023-03-02T18:37:43.347Z,60.70
2023-03-02T18:40:47.750Z,60.35
2023-03-02T18:43:50.684Z,60.50
2023-03-02T18:46:53.323Z,60.07
2023-03-02T18:49:55.992Z,60.67
2023-03-02T18:52:58.630Z,60.79
2023-03-02T18:56:02.603Z,61.23
2023-03-02T18:59:07.135Z,61.69
2023-03-02T19:02:14.109Z,61.94
2023-03-02T19:05:19.477Z,61.87
2023-03-02T19:08:23.342Z,62.56
2023-03-02T19:11:27.381Z,62.37
2023-03-02T19:14:30.283Z,62.72
2023-03-02T19:17:32.883Z,62.94
2023-03-02T19:20:35.695Z,62.87
2023-03-02T19:23:38.383Z,63.45
2023-03-02T19:26:42.538Z,63.57
2023-03-02T19:29:45.563Z,63.23
2023-03-02T19:32:48.202Z,63.33
2023-03-02T19:35:51.097Z,64.01
2023-03-02T19:38:54.085Z,63.87
2023-03-02T19:41:58.074Z,64.03
2023-03-02T19:45:00.842Z,63.78
2023-03-02T19:48:05.668Z,63.58
2023-03-02T19:51:09.277Z,63.89
2023-03-02T19:54:11.851Z,64.29
2023-03-02T19:57:15.853Z,64.75
2023-03-02T20:00:20.947Z,64.86
2023-03-02T20:03:23.523Z,65.18
2023-03-02T20:06:30.362Z,65.28
2023-03-02T20:09:33.298Z,64.87
2023-03-02T20:12:37.840Z,65.44
2023-03-02T20:15:44.455Z,65.54
2023-03-02T20:18:47.167Z,65.89
2023-03-02T20:21:50.905Z,66.82
2023-03-02T20:24:53.545Z,67.10
2023-03-02T20:27:58.824Z,67.12
2023-03-02T20:31:06.991Z,67.15
2023-03-02T20:34:12.588Z,66.86
2023-03-02T20:37:16.396Z,67.24
2023-03-02T20:40:24.805Z,67.54
2023-03-02T20:43:32.072Z,67.84
2023-03-02T20:46:42.426Z,67.42
2023-03-02T20:49:50.188Z,67.59
2023-03-02T20:52:58.543Z,67.46
2023-03-02T20:56:01.294Z,68.46
2023-03-02T20:59:05.363Z,67.84
2023-03-02T21:02:09.757Z,68.04
2023-03-02T21:05:15.898Z,68.01
2023-03-02T21:08:20.294Z,68.24
2023-03-02T21:11:24.409Z,66.87
2023-03-02T21:14:31.028Z,67.55
2023-03-02T21:17:35.916Z,66.76
2023-03-02T21:20:40.215Z,65.82
2023-03-02T21:23:43.922Z,66.40
2023-03-02T21:26:47.665Z,65.89
2023-03-02T21:29:51.772Z,66.07
2023-03-02T21:32:55.022Z,65.71
2023-03-02T21:35:57.928Z,66.84
2023-03-02T21:39:00.860Z,65.47
2023-03-02T21:42:03.664Z,66.08
2023-03-02T21:45:08.864Z,66.79
2023-03-02T21:48:14.323Z,67.91
2023-03-02T21:51:17.212Z,67.35
2023-03-02T21:54:19.905Z,68.11
2023-03-02T21:57:22.543Z,68.40
2023-03-02T22:00:29.319Z,66.92
2023-03-02T22:03:31.929Z,67.46
2023-03-02T22:06:35.598Z,68.10
2023-03-02T22:09:38.369Z,68.28
2023-03-02T22:12:42.044Z,69.42
2023-03-02T22:15:47.114Z,69.73
2023-03-02T22:18:53.980Z,68.99
2023-03-02T22:21:57.871Z,69.41
2023-03-02T22:25:00.872Z,69.74
2023-03-02T22:28:06.932Z,69.69
2023-03-02T22:31:18.309Z,69.08
2023-03-02T22:34:25.375Z,69.52
2023-03-02T22:37:30.398Z,68.67
2023-03-02T22:40:35.544Z,69.95
2023-03-02T22:43:38.373Z,69.94
2023-03-02T22:46:42.824Z,69.54
2023-03-02T22:49:47.139Z,70.15
2023-03-02T22:52:50.393Z,70.12
2023-03-02T22:55:59.132Z,69.82
2023-03-02T22:59:07.626Z,70.15
2023-03-02T23:02:16.463Z,70.15
2023-03-02T23:05:26.600Z,70.06
2023-03-02T23:08:31.165Z,70.20
2023-03-02T23:11:38.731Z,69.68
2023-03-02T23:14:47.946Z,69.74
2023-03-02T23:17:52.085Z,69.58
2023-03-02T23:20:55.879Z,70.33
2023-03-02T23:23:58.746Z,70.11
2023-03-02T23:27:01.909Z,70.40
2023-03-02T23:30:06.080Z,70.72
2023-03-02T23:33:10.482Z,70.38
2023-03-02T23:36:13.702Z,70.38
2023-03-02T23:39:17.617Z,70.51
2023-03-02T23:42:20.350Z,71.48
2023-03-02T23:45:23.156Z,71.32
2023-03-02T23:48:27.415Z,70.50
2023-03-02T23:51:30.242Z,70.67
2023-03-02T23:54:33.129Z,70.99
2023-03-02T23:57:35.991Z,71.27
